Time;durP1;ratioP1;P1;durP2;ratioP2;P2;SDS_P1;SDS_P2;PMS_P1;PMS_P2;Temp;Humidity;BMP_temperature;BMP_pressure;BME280_temperature;BME280_humidity;BME280_pressure;Samples;Min_cycle;Max_cycle;Signal;HPM_P1;HPM_P2
2023/07/01 00:00:34;;;;;;;9.88;4.88;;;;;;;17.84;nan;56682.09;5093949;28;20188;-58
2023/07/01 00:03:00;;;;;;;5.78;4.38;;;;;;;17.59;nan;55910.84;5093976;28;20227;-57
2023/07/01 00:05:25;;;;;;;8.05;4.60;;;;;;;17.51;nan;55272.81;5093426;28;20169;-58
2023/07/01 00:07:50;;;;;;;7.00;4.90;;;;;;;17.69;nan;55174.78;5093572;28;20654;-57
2023/07/01 00:10:16;;;;;;;6.90;4.70;;;;;;;17.68;nan;54676.53;5093658;28;20256;-56
2023/07/01 00:12:41;;;;;;;8.40;4.88;;;;;;;17.68;nan;54903.47;5093604;28;20173;-58
2023/07/01 00:15:07;;;;;;;7.07;4.90;;;;;;;17.51;nan;53968.41;5093321;28;20162;-58
2023/07/01 00:17:32;;;;;;;8.27;5.03;;;;;;;17.39;nan;54438.22;4698783;28;20430;-58
2023/07/01 00:19:58;;;;;;;7.30;4.82;;;;;;;17.70;nan;55792.78;5093505;28;20568;-57
2023/07/01 00:22:23;;;;;;;7.60;5.00;;;;;;;17.71;nan;56734.97;5093235;28;20200;-57
2023/07/01 00:24:48;;;;;;;6.50;4.68;;;;;;;17.63;nan;56600.66;5093382;28;20174;-57
2023/07/01 00:27:14;;;;;;;7.32;4.60;;;;;;;17.88;nan;56417.88;5093789;28;20175;-58
2023/07/01 00:29:39;;;;;;;7.82;4.80;;;;;;;17.93;nan;56761.25;5093067;28;20519;-57
2023/07/01 00:32:06;;;;;;;8.38;4.93;;;;;;;17.72;nan;56217.94;5092957;28;20181;-57
2023/07/01 00:34:31;;;;;;;6.72;4.78;;;;;;;17.88;nan;55098.84;5092884;28;20173;-59
2023/07/01 00:36:56;;;;;;;10.15;5.30;;;;;;;17.52;nan;54011.16;5092878;28;20180;-58
2023/07/01 00:39:22;;;;;;;8.55;4.88;;;;;;;17.74;nan;52926.91;5092747;28;20611;-58
2023/07/01 00:41:53;;;;;;;7.18;5.07;;;;;;;17.73;nan;50838.78;5092891;28;20254;-58
2023/07/01 00:44:19;;;;;;;7.00;5.35;;;;;;;17.62;nan;47294.03;5093003;28;20224;-57
2023/07/01 00:46:45;;;;;;;6.53;5.03;;;;;;;17.33;nan;42971.66;5092853;28;20177;-57
2023/07/01 00:49:10;;;;;;;7.80;5.35;;;;;;;17.60;nan;41639.72;5092500;28;20616;-57
2023/07/01 00:51:36;;;;;;;8.05;4.80;;;;;;;17.50;nan;39090.78;5092947;28;20264;-57
2023/07/01 00:54:02;;;;;;;9.57;5.07;;;;;;;17.50;nan;39129.28;5092864;28;20183;-57
2023/07/01 00:56:27;;;;;;;6.80;4.60;;;;;;;17.53;nan;40625.38;5092525;28;20184;-58
2023/07/01 00:58:53;;;;;;;8.90;5.22;;;;;;;17.56;nan;41788.44;5092279;28;20161;-58
2023/07/01 01:01:26;;;;;;;7.05;5.45;;;;;;;17.21;nan;42215.00;5092572;28;20655;-57
2023/07/01 01:04:15;;;;;;;7.65;5.63;;;;;;;17.46;nan;41723.47;5092207;28;20362;-57
2023/07/01 01:06:50;;;;;;;8.63;5.22;;;;;;;16.70;nan;41222.13;5091488;28;20177;-58
2023/07/01 01:09:30;;;;;;;7.95;5.35;;;;;;;17.76;nan;51843.38;5092302;28;20276;-58
2023/07/01 01:11:58;;;;;;;7.13;5.22;;;;;;;17.77;nan;54337.06;5092192;28;20197;-57
2023/07/01 01:14:25;;;;;;;7.63;5.03;;;;;;;17.88;nan;56781.78;5091945;28;20224;-58
2023/07/01 01:16:52;;;;;;;7.88;4.65;;;;;;;17.80;nan;57327.72;5092119;28;20169;-58
2023/07/01 01:19:56;;;;;;;9.32;5.18;;;;;;;17.70;nan;56063.13;5091890;28;20260;-56
2023/07/01 01:22:33;;;;;;;7.47;5.20;;;;;;;17.69;nan;55265.56;5091855;28;20208;-56
2023/07/01 01:25:24;;;;;;;8.07;4.97;;;;;;;17.52;nan;56489.00;5092198;28;20160;-58
2023/07/01 01:27:52;;;;;;;7.60;4.93;;;;;;;17.65;nan;56038.31;5091408;28;20177;-58
2023/07/01 01:30:20;;;;;;;8.10;5.07;;;;;;;16.23;nan;55587.88;5092083;28;20214;-58
2023/07/01 01:32:46;;;;;;;7.72;4.78;;;;;;;17.22;nan;53752.16;5091635;28;20153;-56
2023/07/01 01:35:12;;;;;;;9.55;5.63;;;;;;;17.61;nan;52847.03;5091643;28;20223;-58
2023/07/01 01:37:40;;;;;;;8.38;4.93;;;;;;;17.82;nan;55791.78;5091914;28;20165;-58
2023/07/01 01:40:17;;;;;;;7.50;4.80;;;;;;;17.77;nan;55768.56;5092074;28;20291;-57
2023/07/01 01:42:45;;;;;;;9.48;5.75;;;;;;;17.70;nan;55652.97;5091808;28;20192;-58
2023/07/01 01:45:12;;;;;;;7.05;4.97;;;;;;;17.78;nan;56727.38;5091358;28;20196;-57
2023/07/01 01:47:38;;;;;;;8.60;5.72;;;;;;;17.74;nan;57308.44;5091540;28;20188;-57
2023/07/01 01:50:08;;;;;;;9.30;6.05;;;;;;;17.71;nan;57031.72;5091226;28;20202;-58
2023/07/01 01:52:34;;;;;;;8.65;5.80;;;;;;;17.71;nan;57765.19;5091374;28;20558;-56
2023/07/01 01:55:00;;;;;;;7.60;5.32;;;;;;;17.49;nan;56815.47;5091959;28;20173;-58
2023/07/01 01:57:26;;;;;;;8.05;5.35;;;;;;;17.50;nan;55498.66;5090614;28;20208;-58
2023/07/01 01:59:52;;;;;;;8.07;5.30;;;;;;;17.33;nan;52687.97;5091006;28;20686;-58
2023/07/01 02:02:17;;;;;;;8.13;5.35;;;;;;;17.04;nan;49512.84;5089298;28;20286;-57
2023/07/01 02:04:43;;;;;;;7.78;5.57;;;;;;;16.87;nan;45994.56;5089568;28;20607;-57
2023/07/01 02:07:08;;;;;;;8.50;5.72;;;;;;;17.10;nan;44817.03;5089623;28;20251;-58
2023/07/01 02:09:33;;;;;;;10.20;5.95;;;;;;;17.12;nan;45851.97;5090727;28;20185;-57
2023/07/01 02:11:59;;;;;;;9.57;5.65;;;;;;;16.98;nan;45793.06;5093462;28;20170;-58
2023/07/01 02:14:24;;;;;;;8.32;5.78;;;;;;;17.27;nan;48232.63;5093332;28;20617;-57
2023/07/01 02:16:50;;;;;;;8.80;5.50;;;;;;;16.98;nan;47417.50;5094615;28;20662;-58
2023/07/01 02:19:16;;;;;;;7.28;5.32;;;;;;;16.88;nan;44865.38;5091154;28;20173;-56
2023/07/01 02:21:42;;;;;;;7.97;5.18;;;;;;;17.06;nan;43039.63;5092750;28;20575;-58
2023/07/01 02:24:07;;;;;;;7.82;5.30;;;;;;;17.00;nan;40178.50;5092138;28;20192;-58
2023/07/01 02:26:33;;;;;;;8.25;5.35;;;;;;;16.73;nan;41439.94;5092775;28;20659;-57
2023/07/01 02:28:59;;;;;;;8.77;5.70;;;;;;;16.68;nan;40246.66;5093154;28;20551;-57
2023/07/01 02:31:24;;;;;;;7.82;5.28;;;;;;;16.78;nan;43199.09;5093018;28;20181;-57
2023/07/01 02:33:50;;;;;;;8.65;5.32;;;;;;;17.14;nan;46578.00;5092770;28;20188;-57
2023/07/01 02:36:16;;;;;;;9.32;5.68;;;;;;;17.07;nan;48523.38;5093890;28;20684;-56
2023/07/01 02:38:41;;;;;;;8.10;5.00;;;;;;;17.04;nan;45220.72;5093770;28;20260;-57
2023/07/01 02:41:07;;;;;;;6.65;5.10;;;;;;;16.81;nan;43134.06;5094020;28;20166;-57
2023/07/01 02:43:32;;;;;;;9.52;5.22;;;;;;;17.11;nan;49015.22;5094005;28;20664;-57
2023/07/01 02:45:57;;;;;;;8.02;5.53;;;;;;;17.05;nan;50231.47;5093625;28;20207;-58
2023/07/01 02:48:23;;;;;;;8.73;5.60;;;;;;;17.05;nan;51099.03;5093904;28;20177;-57
2023/07/01 02:50:48;;;;;;;9.90;6.10;;;;;;;17.08;nan;51812.22;5093730;28;20173;-59
2023/07/01 02:53:15;;;;;;;8.20;5.57;;;;;;;16.71;nan;50380.25;5094142;28;20208;-57
2023/07/01 02:55:41;;;;;;;8.27;5.35;;;;;;;17.03;nan;51763.13;5093569;28;20196;-57
2023/07/01 02:58:06;;;;;;;8.07;5.10;;;;;;;17.07;nan;54625.19;5093810;28;20169;-58
2023/07/01 03:00:32;;;;;;;9.50;6.07;;;;;;;17.36;nan;55520.81;5093530;28;20169;-59
2023/07/01 03:03:06;;;;;;;8.65;5.78;;;;;;;17.52;nan;56039.72;5054117;28;1132500;-58
2023/07/01 03:05:35;;;;;;;8.13;5.15;;;;;;;18.46;nan;58588.78;5094206;28;20213;-58
2023/07/01 03:08:01;;;;;;;7.80;5.20;;;;;;;18.92;nan;60328.28;5093103;28;20608;-58
2023/07/01 03:10:26;;;;;;;6.30;5.10;;;;;;;19.82;nan;61132.41;5093963;28;20212;-58
2023/07/01 03:12:53;;;;;;;8.00;5.13;;;;;;;20.84;nan;61565.00;5094224;28;20299;-58
2023/07/01 03:15:19;;;;;;;7.88;4.85;;;;;;;21.50;nan;61680.75;5093146;28;20255;-58
2023/07/01 03:17:44;;;;;;;7.70;4.82;;;;;;;22.44;nan;61855.97;5092129;28;20185;-58
2023/07/01 03:20:22;;;;;;;6.78;4.72;;;;;;;23.25;nan;61959.91;5094381;28;20563;-59
2023/07/01 03:22:49;;;;;;;6.95;4.72;;;;;;;23.67;nan;62088.59;5087842;28;20196;-58
2023/07/01 03:25:15;;;;;;;5.85;4.47;;;;;;;24.66;nan;62118.63;5092665;28;20178;-59
2023/07/01 03:27:41;;;;;;;5.63;4.32;;;;;;;23.08;nan;63859.63;5093405;28;20559;-58
2023/07/01 03:30:13;;;;;;;7.10;4.82;;;;;;;26.19;nan;62246.75;5093071;28;20208;-59
2023/07/01 03:32:40;;;;;;;7.15;4.65;;;;;;;26.93;nan;62374.63;5086818;28;20177;-58
2023/07/01 03:35:06;;;;;;;6.00;4.13;;;;;;;27.74;nan;62649.84;5092988;28;20177;-59
2023/07/01 03:37:31;;;;;;;7.25;4.88;;;;;;;28.30;nan;62639.81;5093127;28;20193;-58
2023/07/01 03:39:57;;;;;;;5.20;4.18;;;;;;;28.42;nan;62706.16;5092310;28;20181;-59
2023/07/01 03:42:22;;;;;;;6.72;4.38;;;;;;;29.30;nan;62826.41;5093318;28;20203;-59
2023/07/01 03:44:47;;;;;;;6.28;4.30;;;;;;;29.92;nan;62910.16;5092721;28;20174;-58
2023/07/01 03:47:13;;;;;;;5.70;4.22;;;;;;;30.33;nan;62917.13;5093583;28;20204;-58
2023/07/01 03:49:39;;;;;;;5.75;4.18;;;;;;;31.01;nan;63128.75;5093184;28;20268;-58
2023/07/01 03:52:05;;;;;;;7.65;4.32;;;;;;;31.52;nan;63239.75;5093549;28;20177;-58
2023/07/01 03:54:30;;;;;;;4.80;4.13;;;;;;;32.06;nan;63256.44;5093031;28;20204;-59
2023/07/01 03:56:55;;;;;;;6.00;4.15;;;;;;;32.27;nan;63333.03;5093006;28;20177;-58
2023/07/01 03:59:21;;;;;;;6.47;4.18;;;;;;;32.74;nan;63442.31;5091982;28;20238;-59
2023/07/01 04:01:46;;;;;;;5.45;4.20;;;;;;;32.88;nan;63688.34;5092678;28;20199;-58
2023/07/01 04:04:12;;;;;;;5.55;4.13;;;;;;;33.57;nan;63534.94;5094161;28;20179;-58
2023/07/01 04:06:37;;;;;;;6.15;4.47;;;;;;;33.63;nan;63610.84;5093676;28;20184;-58
2023/07/01 04:09:03;;;;;;;8.02;4.10;;;;;;;31.80;nan;63393.09;5093972;28;20635;-58
2023/07/01 04:11:30;;;;;;;5.82;3.90;;;;;;;34.01;nan;63895.19;5093350;28;20261;-59
2023/07/01 04:13:56;;;;;;;5.18;4.20;;;;;;;33.97;nan;63649.63;5093674;28;20175;-58
2023/07/01 04:16:21;;;;;;;5.30;4.07;;;;;;;33.93;nan;63631.75;5093726;28;20169;-57
2023/07/01 04:18:47;;;;;;;5.00;4.00;;;;;;;33.83;nan;63649.34;5093510;28;20176;-59
2023/07/01 04:21:12;;;;;;;5.47;4.20;;;;;;;33.56;nan;63607.50;5093777;28;20157;-59
2023/07/01 04:23:38;;;;;;;6.00;4.45;;;;;;;33.40;nan;63560.38;5093450;28;20584;-58
2023/07/01 04:26:04;;;;;;;4.38;3.65;;;;;;;33.19;nan;63560.56;5093096;28;20180;-58
2023/07/01 04:28:29;;;;;;;6.10;3.72;;;;;;;32.83;nan;63601.03;5093567;28;20695;-58
2023/07/01 04:30:55;;;;;;;5.78;4.00;;;;;;;32.86;nan;63501.19;5093397;28;20302;-60
2023/07/01 04:33:20;;;;;;;6.28;3.92;;;;;;;32.87;nan;63510.28;5092581;28;20667;-58
2023/07/01 04:35:45;;;;;;;7.03;3.75;;;;;;;32.48;nan;63383.72;5093278;28;20165;-58
2023/07/01 04:38:11;;;;;;;6.05;3.80;;;;;;;32.18;nan;63510.50;5091631;28;20184;-58
2023/07/01 04:40:36;;;;;;;6.90;4.10;;;;;;;31.82;nan;63337.22;5090106;28;20212;-58
2023/07/01 04:43:02;;;;;;;4.78;3.85;;;;;;;31.92;nan;63325.53;5092743;28;20203;-59
2023/07/01 04:45:29;;;;;;;6.10;4.32;;;;;;;31.85;nan;63296.31;5092812;28;20195;-58
2023/07/01 04:47:55;;;;;;;5.30;3.92;;;;;;;31.89;nan;63276.53;5092587;28;20180;-59
2023/07/01 04:50:20;;;;;;;5.45;3.83;;;;;;;30.96;nan;63120.91;5092384;28;20169;-58
2023/07/01 04:52:45;;;;;;;5.22;3.80;;;;;;;30.77;nan;63375.66;5092533;28;20169;-57
2023/07/01 04:55:11;;;;;;;4.88;3.75;;;;;;;30.07;nan;63042.81;5090890;28;20647;-59
2023/07/01 04:57:36;;;;;;;4.63;3.75;;;;;;;29.83;nan;62981.53;5092143;28;20670;-60
2023/07/01 05:00:05;;;;;;;5.03;3.85;;;;;;;29.73;nan;62870.47;5090976;28;20177;-60
2023/07/01 05:02:30;;;;;;;5.20;3.88;;;;;;;29.68;nan;62835.75;5090801;28;20643;-58
2023/07/01 05:04:55;;;;;;;4.72;3.70;;;;;;;29.85;nan;62942.22;5091344;28;20184;-58
2023/07/01 05:07:21;;;;;;;5.60;4.00;;;;;;;29.42;nan;62872.34;5091534;28;20173;-60
2023/07/01 05:09:46;;;;;;;4.28;3.58;;;;;;;29.50;nan;62920.47;5091229;28;20201;-59
2023/07/01 05:12:13;;;;;;;4.70;3.70;;;;;;;29.60;nan;62910.88;5091296;28;20172;-59
2023/07/01 05:14:38;;;;;;;5.88;3.78;;;;;;;29.52;nan;62877.97;5091272;28;20176;-59
2023/07/01 05:17:04;;;;;;;5.82;3.60;;;;;;;29.17;nan;62704.09;5090834;28;20253;-59
2023/07/01 05:19:29;;;;;;;5.43;3.95;;;;;;;29.44;nan;62913.59;5091275;28;20219;-60
2023/07/01 05:21:55;;;;;;;5.40;4.00;;;;;;;29.07;nan;62779.53;5090973;28;20200;-58
2023/07/01 05:24:21;;;;;;;5.13;3.70;;;;;;;29.56;nan;62929.41;5091895;28;20212;-57
2023/07/01 05:26:51;;;;;;;5.38;3.75;;;;;;;29.50;nan;62888.88;5090836;28;20181;-58
2023/07/01 05:29:20;;;;;;;5.28;3.97;;;;;;;29.35;nan;62953.28;5090426;28;20177;-59
2023/07/01 05:31:48;;;;;;;5.75;3.88;;;;;;;29.39;nan;62969.00;5091082;28;20184;-59
2023/07/01 05:34:14;;;;;;;7.82;4.25;;;;;;;28.92;nan;62941.28;5074202;28;20197;-59
2023/07/01 05:36:39;;;;;;;5.10;3.88;;;;;;;29.28;nan;62851.00;5091617;28;20211;-59
2023/07/01 05:39:05;;;;;;;4.65;3.70;;;;;;;;;;5091490;28;20185;-58
2023/07/01 05:41:31;;;;;;;4.60;3.55;;;;;;;30.45;nan;63109.72;5091978;28;20673;-57
2023/07/01 05:43:57;;;;;;;5.25;4.03;;;;;;;29.74;nan;62866.34;5091404;28;20173;-59
2023/07/01 05:46:23;;;;;;;4.40;3.78;;;;;;;26.32;nan;64411.09;5091570;28;20257;-59
2023/07/01 05:48:48;;;;;;;5.15;4.00;;;;;;;28.70;nan;62853.44;5092149;28;20600;-58
2023/07/01 05:51:13;;;;;;;5.28;4.22;;;;;;;27.29;nan;62551.03;5091680;28;20204;-59
2023/07/01 05:53:39;;;;;;;4.07;3.67;;;;;;;26.41;nan;62551.16;5091025;28;20237;-59
2023/07/01 05:56:04;;;;;;;4.82;3.90;;;;;;;26.17;nan;62336.16;5091988;28;20621;-59
2023/07/01 05:58:30;;;;;;;4.47;3.88;;;;;;;26.43;nan;62459.09;5091855;28;20608;-60
2023/07/01 06:00:55;;;;;;;4.88;3.70;;;;;;;25.70;nan;62309.31;5091304;28;20166;-60
2023/07/01 06:03:20;;;;;;;6.57;3.70;;;;;;;25.34;nan;62208.63;5091759;28;20228;-60
2023/07/01 06:05:46;;;;;;;7.00;4.10;;;;;;;25.46;nan;62295.00;5089978;28;20229;-58
2023/07/01 06:08:11;;;;;;;6.32;3.88;;;;;;;25.50;nan;62239.38;5091045;28;20652;-59
2023/07/01 06:10:37;;;;;;;4.53;3.90;;;;;;;25.57;nan;62252.03;5091349;28;20183;-59
2023/07/01 06:13:02;;;;;;;8.70;3.90;;;;;;;25.55;nan;62266.03;5091468;28;20173;-60
2023/07/01 06:15:27;;;;;;;5.05;3.67;;;;;;;25.40;nan;62337.88;5091652;28;20191;-58
2023/07/01 06:17:53;;;;;;;5.55;3.78;;;;;;;25.47;nan;62325.50;5091546;28;20177;-57
2023/07/01 06:20:18;;;;;;;5.47;3.90;;;;;;;25.09;nan;62313.53;5091114;28;20573;-59
2023/07/01 06:22:44;;;;;;;5.15;3.90;;;;;;;25.28;nan;62339.88;5091084;28;20200;-59
2023/07/01 06:25:10;;;;;;;5.18;3.67;;;;;;;25.43;nan;62317.75;5091380;28;20668;-58
2023/07/01 06:27:36;;;;;;;6.68;3.85;;;;;;;25.14;nan;62198.34;5091287;28;20166;-58
2023/07/01 06:30:03;;;;;;;5.05;3.60;;;;;;;25.49;nan;62296.38;5091399;28;20632;-59
2023/07/01 06:32:29;;;;;;;5.25;3.70;;;;;;;25.78;nan;62344.06;5091431;28;20173;-59
2023/07/01 06:34:55;;;;;;;4.60;3.47;;;;;;;25.99;nan;62393.66;5091616;28;20166;-58
2023/07/01 06:37:21;;;;;;;4.95;3.78;;;;;;;26.04;nan;62342.28;5090590;28;20253;-58
2023/07/01 06:39:47;;;;;;;4.80;3.85;;;;;;;25.90;nan;62331.56;5090963;28;20209;-58
2023/07/01 06:42:12;;;;;;;4.72;4.10;;;;;;;26.14;nan;62474.22;5090946;28;20668;-60
2023/07/01 06:44:38;;;;;;;5.38;3.85;;;;;;;25.98;nan;62461.19;5091128;28;20644;-58
2023/07/01 06:47:04;;;;;;;5.20;3.85;;;;;;;25.93;nan;62442.94;5090902;28;20175;-59
2023/07/01 06:49:29;;;;;;;4.53;3.70;;;;;;;26.22;nan;62423.13;5089447;28;20201;-59
2023/07/01 06:51:55;;;;;;;5.63;3.92;;;;;;;25.88;nan;62308.34;5091092;28;20195;-59
2023/07/01 06:54:20;;;;;;;5.18;3.70;;;;;;;26.02;nan;62347.88;5079472;28;20213;-60
2023/07/01 06:56:45;;;;;;;8.65;3.78;;;;;;;26.29;nan;62412.78;5073515;28;20162;-59
2023/07/01 06:59:11;;;;;;;4.47;3.70;;;;;;;26.34;nan;62462.47;5074724;28;20197;-59
2023/07/01 07:01:36;;;;;;;7.72;3.92;;;;;;;26.18;nan;62423.78;5074015;28;20625;-59
2023/07/01 07:04:02;;;;;;;4.78;3.55;;;;;;;26.26;nan;62340.66;5074619;28;20225;-59
2023/07/01 07:06:27;;;;;;;5.03;3.88;;;;;;;26.21;nan;62484.88;5074038;28;20170;-59
2023/07/01 07:08:52;;;;;;;5.15;3.95;;;;;;;26.49;nan;62508.47;5074208;28;20661;-60
2023/07/01 07:11:18;;;;;;;5.97;3.90;;;;;;;26.61;nan;62406.81;5073007;28;20186;-60
2023/07/01 07:13:43;;;;;;;5.45;3.90;;;;;;;26.51;nan;62434.72;5074326;28;20166;-59
2023/07/01 07:16:09;;;;;;;5.45;3.90;;;;;;;26.37;nan;62709.66;5073728;28;20257;-58
2023/07/01 07:18:34;;;;;;;4.20;3.35;;;;;;;26.53;nan;62407.59;5074121;28;20174;-59
2023/07/01 07:20:59;;;;;;;4.20;3.50;;;;;;;26.75;nan;62493.63;5074102;28;20621;-58
2023/07/01 07:23:25;;;;;;;5.45;3.88;;;;;;;27.06;nan;62525.31;5074183;28;20197;-59
2023/07/01 07:25:50;;;;;;;5.00;3.28;;;;;;;26.97;nan;62512.97;5074313;28;20668;-60
2023/07/01 07:28:16;;;;;;;4.68;3.45;;;;;;;26.86;nan;62534.50;5074240;28;20245;-59
2023/07/01 07:30:42;;;;;;;5.82;4.03;;;;;;;27.07;nan;62797.31;5074075;28;20210;-59
2023/07/01 07:33:07;;;;;;;4.60;3.58;;;;;;;27.42;nan;62571.19;5074202;28;20194;-59
2023/07/01 07:35:33;;;;;;;5.97;3.40;;;;;;;27.24;nan;62651.47;5073455;28;20641;-60
2023/07/01 07:37:58;;;;;;;7.28;4.20;;;;;;;27.19;nan;62648.34;5074042;28;20245;-59
2023/07/01 07:40:24;;;;;;;5.70;3.63;;;;;;;27.52;nan;62598.97;5073875;28;20174;-59
2023/07/01 07:42:54;;;;;;;5.13;3.83;;;;;;;27.28;nan;62618.75;5073186;28;20564;-58
2023/07/01 07:45:22;;;;;;;4.60;3.63;;;;;;;27.38;nan;62645.34;5073850;28;20617;-59
2023/07/01 07:47:48;;;;;;;5.75;3.75;;;;;;;27.31;nan;62637.34;5073466;28;20593;-59
2023/07/01 07:50:13;;;;;;;4.47;3.50;;;;;;;27.55;nan;62609.72;5093802;28;20188;-60
2023/07/01 07:52:39;;;;;;;4.63;3.63;;;;;;;27.49;nan;62458.44;5093624;28;20170;-60
2023/07/01 07:55:05;;;;;;;4.65;3.38;;;;;;;27.84;nan;62644.97;5094013;28;20181;-59
2023/07/01 07:57:30;;;;;;;4.72;3.90;;;;;;;27.91;nan;62682.44;5093717;28;20561;-59
2023/07/01 07:59:56;;;;;;;5.53;4.07;;;;;;;27.80;nan;62771.72;5093433;28;20171;-59
2023/07/01 08:02:24;;;;;;;6.65;3.80;;;;;;;27.65;nan;62723.59;5112977;28;20300;-59
2023/07/01 08:04:49;;;;;;;4.82;3.65;;;;;;;27.70;nan;62563.84;5113673;28;20177;-60
2023/07/01 08:07:15;;;;;;;5.72;3.83;;;;;;;27.84;nan;62621.88;5112762;28;20171;-59
2023/07/01 08:09:41;;;;;;;4.85;3.63;;;;;;;28.25;nan;62986.41;5114073;28;20167;-60
2023/07/01 08:12:07;;;;;;;5.40;4.00;;;;;;;27.99;nan;62675.84;5113900;28;20183;-59
2023/07/01 08:14:32;;;;;;;4.75;3.70;;;;;;;27.55;nan;62555.16;5113631;28;20706;-63
2023/07/01 08:16:59;;;;;;;5.38;3.78;;;;;;;27.61;nan;62613.94;5113563;28;20263;-59
2023/07/01 08:19:24;;;;;;;5.82;4.00;;;;;;;27.88;nan;62620.66;5113267;28;20203;-59
2023/07/01 08:21:50;;;;;;;4.00;3.60;;;;;;;28.07;nan;62753.34;5112296;28;20529;-59
2023/07/01 08:24:15;;;;;;;5.63;3.50;;;;;;;28.10;nan;62717.38;5113731;28;20171;-58
2023/07/01 08:26:41;;;;;;;4.68;3.78;;;;;;;28.43;nan;62764.59;5113448;28;20176;-59
2023/07/01 08:29:09;;;;;;;4.80;3.72;;;;;;;28.55;nan;62804.63;5113750;28;20172;-62
2023/07/01 08:31:35;;;;;;;4.95;4.00;;;;;;;28.46;nan;62684.44;5111339;28;20167;-60
2023/07/01 08:34:00;;;;;;;4.50;3.47;;;;;;;28.81;nan;63065.50;5092034;28;20180;-58
2023/07/01 08:36:26;;;;;;;5.38;3.70;;;;;;;28.83;nan;63065.75;5092444;28;20261;-58
2023/07/01 08:38:51;;;;;;;4.75;3.78;;;;;;;28.81;nan;62745.03;5092602;28;20212;-58
2023/07/01 08:41:18;;;;;;;4.38;3.53;;;;;;;28.49;nan;62703.06;5092185;28;20180;-57
2023/07/01 08:43:47;;;;;;;6.15;3.60;;;;;;;28.43;nan;62702.06;5092251;28;20690;-58
2023/07/01 08:46:15;;;;;;;4.90;3.65;;;;;;;28.74;nan;62773.84;5092910;28;20230;-58
2023/07/01 08:48:44;;;;;;;5.13;3.90;;;;;;;28.69;nan;62894.38;5092705;28;20176;-58
2023/07/01 08:51:09;;;;;;;4.95;3.80;;;;;;;29.04;nan;62893.97;5092792;28;20222;-59
2023/07/01 08:53:36;;;;;;;4.68;3.67;;;;;;;28.92;nan;62794.47;5091945;28;20644;-59
2023/07/01 08:56:03;;;;;;;5.53;3.95;;;;;;;29.23;nan;62823.63;5092249;28;20176;-60
2023/07/01 08:58:29;;;;;;;5.18;3.85;;;;;;;28.93;nan;62779.84;5089505;28;20671;-59
2023/07/01 09:00:56;;;;;;;5.43;3.80;;;;;;;29.26;nan;62830.28;5091595;28;20175;-59
2023/07/01 09:03:22;;;;;;;4.72;3.70;;;;;;;29.17;nan;62858.88;5086827;28;20702;-59
2023/07/01 09:05:47;;;;;;;4.60;3.83;;;;;;;29.20;nan;62838.59;5092724;28;20183;-59
2023/07/01 09:08:13;;;;;;;5.40;3.78;;;;;;;29.38;nan;62823.00;5092255;28;20571;-58
2023/07/01 09:10:38;;;;;;;4.32;3.45;;;;;;;29.35;nan;62866.38;5092245;28;20260;-59
2023/07/01 09:13:11;;;;;;;5.13;3.92;;;;;;;29.19;nan;62782.75;5092083;28;20188;-58
2023/07/01 09:15:47;;;;;;;4.95;3.80;;;;;;;29.24;nan;62843.19;5091902;28;20612;-59
2023/07/01 09:18:26;;;;;;;4.88;3.80;;;;;;;29.35;nan;62958.56;5092046;28;20176;-60
2023/07/01 09:20:52;;;;;;;5.15;4.00;;;;;;;29.52;nan;62846.38;5092079;28;20168;-59
2023/07/01 09:23:44;;;;;;;5.07;4.15;;;;;;;29.63;nan;62905.84;5091715;28;20679;-58
2023/07/01 09:26:14;;;;;;;5.47;3.83;;;;;;;29.25;nan;62823.28;5089850;28;20195;-59
2023/07/01 09:28:40;;;;;;;6.88;4.38;;;;;;;29.41;nan;62928.56;5092098;28;20169;-60
2023/07/01 09:31:09;;;;;;;6.68;4.10;;;;;;;29.38;nan;62815.09;5090698;28;20184;-59
2023/07/01 09:33:36;;;;;;;5.30;4.10;;;;;;;29.27;nan;62949.34;5077002;28;20187;-59
2023/07/01 09:36:02;;;;;;;5.05;3.97;;;;;;;29.54;nan;62896.09;5092014;28;20173;-60
2023/07/01 09:38:32;;;;;;;6.30;4.18;;;;;;;29.31;nan;62909.19;5091674;28;20208;-58
2023/07/01 09:41:17;;;;;;;6.72;3.90;;;;;;;28.99;nan;62883.53;5092002;28;20160;-60
2023/07/01 09:43:43;;;;;;;5.28;4.30;;;;;;;29.18;nan;62899.53;5090477;28;20291;-58
2023/07/01 09:46:09;;;;;;;6.00;4.13;;;;;;;29.24;nan;63127.59;5091652;28;20256;-59
2023/07/01 09:48:35;;;;;;;5.20;3.92;;;;;;;29.56;nan;62860.91;5091751;28;20628;-59
2023/07/01 09:51:02;;;;;;;5.93;4.30;;;;;;;29.47;nan;62982.88;5091721;28;20639;-60
2023/07/01 09:53:31;;;;;;;8.43;4.55;;;;;;;29.89;nan;62945.69;5091825;28;20227;-60
2023/07/01 09:55:56;;;;;;;5.82;4.00;;;;;;;29.78;nan;62894.66;5091814;28;20176;-59
2023/07/01 09:58:22;;;;;;;6.00;4.22;;;;;;;29.90;nan;63094.47;5091743;28;20171;-58
2023/07/01 10:00:48;;;;;;;4.50;3.90;;;;;;;29.75;nan;63204.25;5091650;28;20180;-59
2023/07/01 10:03:15;;;;;;;5.53;4.30;;;;;;;29.44;nan;62824.03;5090784;28;20260;-59
2023/07/01 10:05:43;;;;;;;5.65;4.38;;;;;;;29.65;nan;62882.38;5090759;28;20176;-59
2023/07/01 10:08:09;;;;;;;6.57;4.50;;;;;;;29.36;nan;62991.88;5091203;28;20245;-60
2023/07/01 10:10:34;;;;;;;6.25;4.25;;;;;;;29.74;nan;62932.22;5091722;28;20635;-57
2023/07/01 10:13:03;;;;;;;5.13;4.10;;;;;;;29.59;nan;62856.47;5091736;28;20169;-60
2023/07/01 10:15:34;;;;;;;5.45;4.13;;;;;;;29.70;nan;62884.88;5091637;28;20584;-59
2023/07/01 10:17:59;;;;;;;5.47;4.15;;;;;;;29.49;nan;62850.84;5091465;28;20169;-58
2023/07/01 10:20:33;;;;;;;5.97;4.18;;;;;;;29.77;nan;62908.75;5090830;28;20173;-59
2023/07/01 10:23:03;;;;;;;5.03;3.58;;;;;;;29.97;nan;62926.44;5090595;28;20197;-59
2023/07/01 10:25:31;;;;;;;5.30;3.88;;;;;;;30.04;nan;63029.41;5091219;28;20237;-58
2023/07/01 10:27:59;;;;;;;5.15;3.80;;;;;;;30.05;nan;62977.25;5089897;28;20608;-59
2023/07/01 10:30:45;;;;;;;4.90;3.85;;;;;;;29.57;nan;62915.34;5090797;28;20181;-59
2023/07/01 10:33:35;;;;;;;4.25;3.42;;;;;;;29.64;nan;62933.91;5071249;28;20257;-59
2023/07/01 10:36:08;;;;;;;4.30;3.58;;;;;;;29.74;nan;62911.13;5095044;28;20180;-58
2023/07/01 10:38:36;;;;;;;4.55;3.65;;;;;;;29.91;nan;62961.75;5093885;28;20212;-59
2023/07/01 10:41:02;;;;;;;4.43;3.80;;;;;;;29.93;nan;62852.75;5093999;28;20179;-58
2023/07/01 10:43:29;;;;;;;4.72;3.75;;;;;;;29.94;nan;63030.53;5090637;28;20348;-60
2023/07/01 10:46:21;;;;;;;5.32;3.70;;;;;;;30.32;nan;62942.34;5076861;28;20184;-58
2023/07/01 10:49:05;;;;;;;4.53;3.60;;;;;;;30.57;nan;63103.00;5092004;28;20192;-60
2023/07/01 10:51:53;;;;;;;6.30;3.95;;;;;;;30.91;nan;63183.81;5073534;28;20632;-60
2023/07/01 10:54:32;;;;;;;5.20;3.78;;;;;;;30.78;nan;63187.31;5064783;28;20193;-59
2023/07/01 10:57:17;;;;;;;5.70;3.70;;;;;;;30.78;nan;63102.28;5093008;28;20245;-59
2023/07/01 10:59:42;;;;;;;4.88;3.58;;;;;;;30.85;nan;63108.25;5094372;28;20226;-59
2023/07/01 11:02:09;;;;;;;4.90;3.25;;;;;;;30.74;nan;63045.47;5094898;28;20233;-58
2023/07/01 11:04:54;;;;;;;5.45;3.22;;;;;;;31.00;nan;63167.78;5094433;28;20195;-59
2023/07/01 11:07:27;;;;;;;5.55;3.28;;;;;;;30.93;nan;63069.38;5094765;28;20187;-58
2023/07/01 11:09:56;;;;;;;4.05;3.05;;;;;;;30.99;nan;63313.91;5093460;28;20505;-59
2023/07/01 11:12:25;;;;;;;6.22;3.78;;;;;;;30.90;nan;63195.28;5094550;28;20632;-59
2023/07/01 11:14:52;;;;;;;4.45;3.17;;;;;;;31.01;nan;63229.69;5094511;28;20183;-59
2023/07/01 11:17:20;;;;;;;4.57;3.58;;;;;;;31.12;nan;63215.38;5094772;28;20241;-57
2023/07/01 11:19:46;;;;;;;4.60;3.50;;;;;;;30.89;nan;63096.44;5094838;28;20161;-59
2023/07/01 11:22:14;;;;;;;3.63;3.00;;;;;;;30.88;nan;63111.13;5094305;28;20193;-59
2023/07/01 11:24:40;;;;;;;4.57;3.15;;;;;;;30.49;nan;63027.84;4815267;28;20326;-59
2023/07/01 11:27:08;;;;;;;3.63;3.13;;;;;;;30.67;nan;63059.09;5094321;28;20252;-59
2023/07/01 11:29:34;;;;;;;3.80;3.03;;;;;;;30.57;nan;63012.69;5094249;28;20173;-59
2023/07/01 11:32:04;;;;;;;3.75;3.03;;;;;;;30.68;nan;63113.03;5093767;28;20683;-60
2023/07/01 11:34:31;;;;;;;3.88;3.10;;;;;;;30.54;nan;63138.56;5094230;28;20165;-59
2023/07/01 11:36:58;;;;;;;3.83;2.83;;;;;;;30.58;nan;63077.78;5094050;28;20240;-59
2023/07/01 11:39:24;;;;;;;5.57;3.10;;;;;;;30.41;nan;63044.44;5093437;28;20202;-60
2023/07/01 11:41:51;;;;;;;3.80;2.80;;;;;;;;;;5093586;28;20169;-59
2023/07/01 11:44:20;;;;;;;3.65;2.72;;;;;;;29.98;nan;63072.59;5094105;28;20263;-59
2023/07/01 11:46:46;;;;;;;3.33;2.50;;;;;;;30.18;nan;62868.81;5093787;28;20263;-57
2023/07/01 11:49:22;;;;;;;3.47;2.80;;;;;;;30.37;nan;63000.25;5093932;28;20256;-59
2023/07/01 11:51:55;;;;;;;3.30;2.55;;;;;;;30.03;nan;63061.97;5094089;28;20261;-59